Terminal Aerodrome Forecast
Issued by NWS

Home | Current Version | Previous Version | Text Only | Print | Product List | Glossary On
Versions: 1 2 3 4 5 6 7 8 9 10 11 12 13 14
000
FTUS45 KFGZ 171700
TAFPGA
TAF
KPGA 171740Z 1718/1818 VRB06KT P6SM SCT120 OVC150
     FM172000 11010KT P6SM SCT120 OVC150
     FM180200 VRB05KT P6SM SCT120=

USA.gov is the U.S. government's official web portal to all federal, state and local government web resources and services.